Eagle (EGE/KEGE)

Information

Location
Eagle, CO
Local Time
16:44 / 4:44 pm
GMT Time
23:44 / 11:44 pm
Gates
3
No FAA reported delays
METAR KEGE 182256Z 26004KT 10SM CLR 04/M10 A3024 RMK AO2 SLP293 T00391100
TAF KEGE 181724Z 1818/1918 32006KT P6SM FEW250